createdAt,value
2022-08-17T00:00:43.532Z,12.60
2022-08-17T00:03:11.348Z,11.77
2022-08-17T00:05:45.191Z,11.73
2022-08-17T00:08:13.258Z,11.88
2022-08-17T00:10:41.265Z,11.00
2022-08-17T00:13:09.746Z,10.93
2022-08-17T00:15:39.669Z,12.73
2022-08-17T00:18:53.867Z,13.93
2022-08-17T00:20:56.058Z,11.40
2022-08-17T00:23:24.272Z,11.98
2022-08-17T00:25:52.537Z,13.52
2022-08-17T00:28:20.948Z,13.27
2022-08-17T00:30:53.411Z,11.25
2022-08-17T00:33:25.564Z,12.40
2022-08-17T00:35:55.563Z,10.88
2022-08-17T00:38:24.350Z,10.18
2022-08-17T00:40:55.946Z,10.02
2022-08-17T00:43:33.084Z,10.15
2022-08-17T00:46:07.874Z,11.90
2022-08-17T00:48:36.283Z,9.23
2022-08-17T00:51:09.222Z,9.18
2022-08-17T00:53:41.890Z,13.68
2022-08-17T00:56:12.807Z,10.80
2022-08-17T00:58:41.443Z,11.15
2022-08-17T01:01:12.855Z,10.52
2022-08-17T01:03:51.554Z,11.38
2022-08-17T01:06:20.316Z,11.48
2022-08-17T01:08:48.115Z,12.40
2022-08-17T01:11:25.692Z,12.75
2022-08-17T01:13:53.685Z,12.85
2022-08-17T01:16:26.184Z,13.40
2022-08-17T01:18:56.733Z,12.43
2022-08-17T01:21:33.025Z,13.35
2022-08-17T01:24:02.345Z,16.48
2022-08-17T01:26:31.499Z,14.02
2022-08-17T01:28:59.697Z,18.48
2022-08-17T01:31:31.247Z,11.25
2022-08-17T01:34:01.866Z,14.10
2022-08-17T01:36:29.925Z,11.68
2022-08-17T01:38:57.894Z,13.48
2022-08-17T01:41:28.259Z,14.40
2022-08-17T01:44:00.687Z,14.13
2022-08-17T01:46:35.425Z,13.98
2022-08-17T01:49:07.654Z,11.73
2022-08-17T01:51:35.416Z,11.60
2022-08-17T01:54:09.487Z,11.43
2022-08-17T01:56:42.515Z,11.45
2022-08-17T01:59:10.350Z,10.60
2022-08-17T02:01:38.935Z,14.25
2022-08-17T02:04:08.395Z,11.93
2022-08-17T02:06:52.753Z,12.48
2022-08-17T02:09:24.078Z,11.20
2022-08-17T02:11:55.196Z,11.25
2022-08-17T02:14:25.331Z,11.18
2022-08-17T02:16:53.779Z,11.02
2022-08-17T02:19:21.859Z,11.10
2022-08-17T02:21:51.907Z,10.68
2022-08-17T02:24:58.754Z,11.18
2022-08-17T02:27:12.891Z,10.73
2022-08-17T02:29:40.616Z,10.73
2022-08-17T02:32:22.271Z,10.60
2022-08-17T02:34:55.897Z,10.30
2022-08-17T02:37:23.674Z,9.93
2022-08-17T02:39:51.664Z,11.50
2022-08-17T02:42:27.788Z,13.13
2022-08-17T02:44:55.535Z,12.60
2022-08-17T02:47:23.208Z,12.55
2022-08-17T02:49:54.411Z,15.25
2022-08-17T02:52:42.684Z,13.68
2022-08-17T02:55:13.782Z,16.10
2022-08-17T02:57:42.839Z,12.95
2022-08-17T03:00:14.814Z,11.40
2022-08-17T03:02:44.622Z,12.23
2022-08-17T03:05:15.006Z,13.77
2022-08-17T03:07:43.276Z,12.52
2022-08-17T03:10:12.227Z,15.07
2022-08-17T03:12:43.306Z,13.32
2022-08-17T03:15:13.472Z,13.43
2022-08-17T03:17:41.394Z,12.30
2022-08-17T03:20:10.334Z,11.57
2022-08-17T03:22:39.480Z,13.88
2022-08-17T03:25:10.686Z,10.90
2022-08-17T03:27:38.642Z,10.82
2022-08-17T03:30:13.538Z,10.40
2022-08-17T03:32:42.856Z,10.85
2022-08-17T03:35:12.578Z,10.30
2022-08-17T03:37:42.826Z,11.23
2022-08-17T03:40:12.429Z,13.00
2022-08-17T03:42:41.535Z,11.60
2022-08-17T03:45:15.628Z,11.32
2022-08-17T03:48:06.905Z,15.38
2022-08-17T03:50:52.388Z,13.93
2022-08-17T03:53:37.876Z,13.93
2022-08-17T03:56:23.665Z,13.93
2022-08-17T03:58:51.584Z,13.40
2022-08-17T04:01:20.673Z,13.00
2022-08-17T04:03:48.412Z,13.40
2022-08-17T04:06:16.569Z,12.77
2022-08-17T04:08:44.207Z,11.95
2022-08-17T04:11:11.862Z,14.38
2022-08-17T04:13:39.453Z,13.07
2022-08-17T04:16:07.432Z,13.57
2022-08-17T04:18:36.434Z,12.70
2022-08-17T04:21:04.143Z,14.75
2022-08-17T04:23:33.743Z,13.95
2022-08-17T04:26:01.731Z,14.32
2022-08-17T04:28:29.990Z,14.90
2022-08-17T04:30:58.442Z,14.73
2022-08-17T04:33:27.813Z,16.15
2022-08-17T04:35:59.826Z,16.25
2022-08-17T04:38:29.905Z,14.80
2022-08-17T04:41:15.787Z,12.65
2022-08-17T04:43:44.633Z,14.50
2022-08-17T04:46:14.497Z,13.70
2022-08-17T04:48:44.313Z,13.10
2022-08-17T04:51:16.135Z,16.75
2022-08-17T04:53:46.570Z,14.77
2022-08-17T04:56:22.242Z,12.63
2022-08-17T04:58:53.874Z,11.18
2022-08-17T05:01:24.593Z,10.93
2022-08-17T05:03:53.484Z,10.50
2022-08-17T05:06:23.395Z,11.35
2022-08-17T05:08:51.071Z,12.13
2022-08-17T05:11:19.123Z,12.45
2022-08-17T05:13:49.998Z,12.52
2022-08-17T05:16:19.010Z,11.05
2022-08-17T05:18:47.250Z,10.50
2022-08-17T05:21:16.066Z,12.45
2022-08-17T05:23:50.329Z,11.98
2022-08-17T05:26:26.658Z,11.60
2022-08-17T05:28:57.239Z,11.10
2022-08-17T05:31:28.212Z,9.40
2022-08-17T05:33:55.990Z,10.57
2022-08-17T05:36:41.808Z,11.30
2022-08-17T05:39:16.292Z,10.20
2022-08-17T05:41:45.532Z,10.07
2022-08-17T05:44:13.165Z,11.25
2022-08-17T05:46:44.809Z,10.23
2022-08-17T05:49:14.824Z,10.00
2022-08-17T05:52:00.886Z,9.73
2022-08-17T05:54:39.952Z,10.18
2022-08-17T05:57:39.506Z,14.43
2022-08-17T06:00:17.000Z,10.57
2022-08-17T06:02:59.372Z,9.35
2022-08-17T06:05:39.159Z,9.00
2022-08-17T06:08:14.055Z,10.88
2022-08-17T06:10:48.111Z,10.27
2022-08-17T06:13:23.949Z,12.13
2022-08-17T06:16:03.006Z,12.02
2022-08-17T06:18:37.529Z,11.60
2022-08-17T06:21:08.207Z,11.93
2022-08-17T06:23:39.617Z,13.65
2022-08-17T06:26:13.879Z,12.80
2022-08-17T06:28:48.034Z,13.05
2022-08-17T06:31:22.536Z,12.85
2022-08-17T06:33:51.363Z,15.55
2022-08-17T06:36:40.101Z,13.13
2022-08-17T06:39:26.572Z,14.40
2022-08-17T06:42:05.542Z,13.32
2022-08-17T06:44:49.634Z,13.13
2022-08-17T06:47:28.908Z,14.30
2022-08-17T06:50:09.156Z,14.65
2022-08-17T06:52:46.326Z,17.10
2022-08-17T06:55:21.249Z,13.75
2022-08-17T06:57:52.565Z,17.92
2022-08-17T07:00:23.857Z,15.10
2022-08-17T07:02:57.154Z,13.85
2022-08-17T07:05:27.800Z,11.93
2022-08-17T07:08:02.532Z,12.88
2022-08-17T07:10:36.526Z,11.23
2022-08-17T07:13:29.490Z,11.85
2022-08-17T07:16:07.317Z,14.90
2022-08-17T07:18:34.967Z,11.70
2022-08-17T07:21:14.216Z,11.73
2022-08-17T07:24:01.820Z,11.05
2022-08-17T07:26:29.782Z,11.40
2022-08-17T07:29:02.272Z,11.20
2022-08-17T07:31:33.681Z,10.55
2022-08-17T07:34:08.609Z,6.47
2022-08-17T07:36:36.499Z,7.60
2022-08-17T07:39:05.442Z,11.93
2022-08-17T07:41:57.598Z,8.48
2022-08-17T07:44:28.737Z,10.75
2022-08-17T07:47:14.750Z,10.55
2022-08-17T07:49:46.082Z,9.00
2022-08-17T07:52:50.619Z,7.50
2022-08-17T07:55:27.686Z,7.43
2022-08-17T07:57:57.904Z,8.90
2022-08-17T08:00:32.123Z,8.02
2022-08-17T08:03:05.949Z,7.53
2022-08-17T08:05:50.583Z,7.97
2022-08-17T08:08:27.985Z,7.40
2022-08-17T08:11:02.666Z,8.30
2022-08-17T08:13:32.317Z,6.43
2022-08-17T08:16:26.454Z,5.45
2022-08-17T08:18:57.989Z,7.30
2022-08-17T08:21:37.156Z,8.95
2022-08-17T08:24:23.538Z,6.65
2022-08-17T08:26:57.983Z,9.73
2022-08-17T08:29:31.299Z,6.32
2022-08-17T08:32:10.412Z,7.13
2022-08-17T08:35:02.314Z,6.28
2022-08-17T08:37:43.561Z,7.22
2022-08-17T08:40:29.840Z,7.65
2022-08-17T08:43:08.335Z,7.93
2022-08-17T08:45:47.132Z,6.70
2022-08-17T08:48:53.015Z,11.27
2022-08-17T08:51:34.811Z,8.20
2022-08-17T08:54:09.975Z,8.63
2022-08-17T08:57:11.614Z,7.55
2022-08-17T08:59:35.094Z,9.40
2022-08-17T09:02:23.373Z,9.35
2022-08-17T09:05:14.236Z,8.90
2022-08-17T09:07:56.243Z,5.68
2022-08-17T09:10:30.733Z,8.10
2022-08-17T09:13:10.282Z,7.07
2022-08-17T09:15:43.501Z,7.10
2022-08-17T09:19:03.411Z,5.90
2022-08-17T09:21:12.009Z,4.82
2022-08-17T09:23:49.563Z,5.13
2022-08-17T09:26:22.811Z,4.60
2022-08-17T09:28:53.674Z,5.45
2022-08-17T09:31:26.829Z,4.22
2022-08-17T09:34:00.074Z,4.63
2022-08-17T09:36:34.473Z,3.83
2022-08-17T09:39:07.367Z,4.05
2022-08-17T09:41:49.302Z,5.28
2022-08-17T09:44:25.662Z,2.95
2022-08-17T09:47:00.030Z,5.03
2022-08-17T09:49:32.671Z,5.07
2022-08-17T09:52:06.819Z,5.72
2022-08-17T09:54:39.845Z,4.25
2022-08-17T09:57:31.527Z,5.35
2022-08-17T10:00:16.669Z,5.25
2022-08-17T10:03:08.679Z,4.82
2022-08-17T10:05:46.438Z,5.72
2022-08-17T10:08:23.915Z,4.38
2022-08-17T10:11:06.841Z,4.05
2022-08-17T10:13:53.210Z,5.13
2022-08-17T10:16:27.833Z,4.63
2022-08-17T10:19:04.161Z,6.13
2022-08-17T10:22:01.373Z,5.25
2022-08-17T10:25:23.829Z,3.85
2022-08-17T10:27:55.627Z,3.60
2022-08-17T10:30:27.614Z,8.13
2022-08-17T10:32:59.311Z,4.47
2022-08-17T10:35:34.218Z,7.55
2022-08-17T10:38:32.203Z,5.88
2022-08-17T10:41:07.604Z,4.05
2022-08-17T10:43:55.836Z,4.60
2022-08-17T10:46:52.335Z,6.15
2022-08-17T10:49:27.914Z,6.65
2022-08-17T10:51:57.952Z,4.47
2022-08-17T10:54:38.726Z,4.75
2022-08-17T10:57:37.355Z,3.90
2022-08-17T11:00:10.166Z,4.60
2022-08-17T11:02:50.223Z,6.18
2022-08-17T11:05:43.683Z,6.15
2022-08-17T11:08:36.259Z,5.57
2022-08-17T11:11:34.648Z,4.90
2022-08-17T11:14:17.009Z,7.80
2022-08-17T11:16:54.885Z,5.30
2022-08-17T11:19:44.376Z,5.05
2022-08-17T11:22:57.858Z,3.58
2022-08-17T11:25:35.072Z,3.88
2022-08-17T11:28:08.794Z,5.43
2022-08-17T11:30:52.065Z,6.75
2022-08-17T11:33:55.664Z,4.82
2022-08-17T11:36:49.103Z,4.57
2022-08-17T11:39:36.013Z,3.50
2022-08-17T11:42:07.023Z,4.43
2022-08-17T11:44:45.366Z,4.32
2022-08-17T11:47:38.662Z,6.30
2022-08-17T11:51:12.717Z,3.55
2022-08-17T11:54:31.040Z,6.18
2022-08-17T11:56:52.822Z,4.38
2022-08-17T11:59:59.113Z,4.72
2022-08-17T12:02:47.545Z,2.83
2022-08-17T12:05:35.595Z,3.35
2022-08-17T12:08:12.746Z,4.07
2022-08-17T12:11:01.168Z,6.70
2022-08-17T12:13:34.627Z,4.25
2022-08-17T12:16:09.334Z,3.17
2022-08-17T12:18:41.918Z,6.32
2022-08-17T12:21:23.547Z,4.93
2022-08-17T12:23:57.943Z,7.13
2022-08-17T12:26:30.287Z,4.68
2022-08-17T12:29:02.111Z,4.20
2022-08-17T12:31:35.402Z,3.53
2022-08-17T12:34:05.965Z,6.60
2022-08-17T12:36:34.694Z,3.30
2022-08-17T12:39:12.979Z,6.75
2022-08-17T12:41:44.961Z,3.60
2022-08-17T12:44:16.457Z,4.45
2022-08-17T12:46:54.083Z,4.60
2022-08-17T12:49:28.971Z,4.18
2022-08-17T12:52:05.710Z,6.15
2022-08-17T12:54:41.210Z,6.07
2022-08-17T12:57:14.095Z,5.13
2022-08-17T12:59:45.258Z,4.90
2022-08-17T13:02:22.976Z,4.70
2022-08-17T13:04:52.041Z,4.05
2022-08-17T13:07:31.754Z,5.25
2022-08-17T13:10:00.018Z,3.50
2022-08-17T13:12:29.939Z,4.32
2022-08-17T13:14:58.406Z,3.70
2022-08-17T13:17:29.458Z,3.95
2022-08-17T13:19:58.787Z,3.40
2022-08-17T13:22:29.294Z,7.55
2022-08-17T13:25:03.872Z,4.60
2022-08-17T13:27:32.582Z,6.68
2022-08-17T13:30:05.747Z,4.95
2022-08-17T13:32:37.261Z,4.32
2022-08-17T13:35:44.268Z,5.22
2022-08-17T13:38:36.534Z,5.50
2022-08-17T13:41:07.394Z,5.00
2022-08-17T13:43:45.526Z,4.60
2022-08-17T13:46:20.328Z,3.72
2022-08-17T13:48:59.255Z,3.10
2022-08-17T13:51:35.479Z,2.78
2022-08-17T13:54:28.705Z,3.45
2022-08-17T13:57:02.258Z,4.53
2022-08-17T13:59:54.218Z,3.33
2022-08-17T14:02:27.210Z,7.85
2022-08-17T14:05:02.058Z,3.65
2022-08-17T14:07:37.949Z,4.68
2022-08-17T14:10:12.801Z,4.65
2022-08-17T14:12:43.062Z,3.75
2022-08-17T14:15:12.541Z,2.75
2022-08-17T14:17:40.166Z,4.78
2022-08-17T14:20:11.045Z,6.07
2022-08-17T14:22:44.255Z,5.85
2022-08-17T14:25:14.757Z,4.80
2022-08-17T14:27:52.838Z,8.38
2022-08-17T14:30:22.894Z,3.55
2022-08-17T14:32:51.917Z,3.10
2022-08-17T14:35:22.241Z,3.80
2022-08-17T14:37:51.618Z,4.40
2022-08-17T14:40:24.701Z,3.85
2022-08-17T14:42:55.128Z,4.93
2022-08-17T14:45:30.058Z,3.90
2022-08-17T14:48:01.512Z,5.32
2022-08-17T14:50:29.220Z,3.05
2022-08-17T14:52:58.328Z,4.47
2022-08-17T14:55:32.416Z,5.68
2022-08-17T14:58:00.134Z,3.58
2022-08-17T15:00:28.546Z,4.78
2022-08-17T15:02:58.503Z,6.10
2022-08-17T15:05:32.468Z,3.63
2022-08-17T15:08:02.824Z,4.47
2022-08-17T15:10:31.237Z,4.43
2022-08-17T15:13:00.145Z,4.63
2022-08-17T15:15:28.831Z,4.82
2022-08-17T15:17:57.223Z,4.35
2022-08-17T15:20:27.968Z,4.40
2022-08-17T15:22:57.179Z,4.10
2022-08-17T15:25:28.144Z,4.93
2022-08-17T15:27:56.588Z,6.18
2022-08-17T15:30:25.688Z,3.97
2022-08-17T15:32:55.289Z,3.95
2022-08-17T15:35:27.809Z,4.57
2022-08-17T15:37:57.731Z,6.30
2022-08-17T15:40:26.956Z,4.55
2022-08-17T15:42:54.899Z,5.57
2022-08-17T15:45:26.969Z,6.55
2022-08-17T15:47:54.979Z,4.40
2022-08-17T15:50:22.921Z,4.80
2022-08-17T15:52:57.935Z,4.22
2022-08-17T15:55:29.382Z,4.75
2022-08-17T15:57:57.136Z,7.18
2022-08-17T16:00:25.872Z,4.93
2022-08-17T16:03:46.347Z,5.63
2022-08-17T16:05:44.028Z,4.55
2022-08-17T16:08:20.195Z,4.40
2022-08-17T16:10:50.993Z,5.15
2022-08-17T16:13:19.620Z,4.82
2022-08-17T16:15:57.094Z,5.78
2022-08-17T16:18:28.481Z,5.20
2022-08-17T16:20:56.446Z,4.50
2022-08-17T16:23:24.156Z,6.18
2022-08-17T16:25:54.597Z,4.22
2022-08-17T16:28:35.778Z,5.63
2022-08-17T16:31:08.193Z,8.18
2022-08-17T16:33:39.340Z,6.10
2022-08-17T16:36:08.944Z,8.45
2022-08-17T16:38:37.245Z,4.85
2022-08-17T16:41:07.023Z,5.32
2022-08-17T16:43:36.058Z,5.65
2022-08-17T16:46:03.790Z,4.72
2022-08-17T16:48:31.878Z,5.47
2022-08-17T16:51:03.390Z,5.28
2022-08-17T16:53:33.583Z,5.72
2022-08-17T16:56:01.248Z,10.70
2022-08-17T16:58:30.261Z,5.60
2022-08-17T17:00:59.281Z,6.88
2022-08-17T17:03:30.062Z,5.10
2022-08-17T17:06:07.154Z,5.28
2022-08-17T17:08:43.607Z,6.88
2022-08-17T17:11:15.516Z,6.75
2022-08-17T17:13:54.096Z,5.32
2022-08-17T17:16:27.445Z,5.03
2022-08-17T17:19:09.286Z,6.78
2022-08-17T17:21:45.130Z,5.00
2022-08-17T17:24:18.005Z,5.45
2022-08-17T17:27:07.512Z,5.85
2022-08-17T17:29:51.303Z,6.97
2022-08-17T17:32:26.384Z,7.25
2022-08-17T17:35:02.146Z,5.15
2022-08-17T17:37:35.235Z,4.97
2022-08-17T17:40:09.470Z,5.97
2022-08-17T17:42:41.370Z,8.73
2022-08-17T17:45:19.910Z,7.10
2022-08-17T17:47:48.487Z,5.22
2022-08-17T17:50:18.142Z,5.53
2022-08-17T17:52:59.222Z,7.70
2022-08-17T17:55:39.468Z,7.05
2022-08-17T17:58:26.527Z,6.53
2022-08-17T18:01:10.783Z,5.07
2022-08-17T18:03:54.538Z,5.65
2022-08-17T18:06:30.494Z,5.18
2022-08-17T18:09:10.255Z,5.45
2022-08-17T18:11:53.910Z,7.60
2022-08-17T18:14:42.225Z,5.63
2022-08-17T18:17:14.387Z,6.50
2022-08-17T18:19:42.238Z,4.93
2022-08-17T18:22:14.159Z,5.88
2022-08-17T18:24:44.205Z,6.07
2022-08-17T18:27:25.186Z,6.65
2022-08-17T18:29:53.991Z,5.93
2022-08-17T18:32:35.648Z,6.07
2022-08-17T18:35:28.538Z,6.80
2022-08-17T18:37:59.071Z,6.60
2022-08-17T18:40:35.150Z,5.95
2022-08-17T18:43:07.445Z,6.47
2022-08-17T18:45:39.532Z,7.63
2022-08-17T18:48:23.690Z,6.97
2022-08-17T18:50:54.199Z,7.43
2022-08-17T18:53:35.845Z,6.43
2022-08-17T18:56:30.647Z,7.40
2022-08-17T18:59:14.079Z,6.65
2022-08-17T19:01:59.900Z,6.53
2022-08-17T19:04:35.578Z,10.30
2022-08-17T19:07:26.044Z,8.70
2022-08-17T19:09:58.252Z,7.20
2022-08-17T19:12:34.575Z,9.32
2022-08-17T19:15:03.534Z,8.10
2022-08-17T19:17:39.142Z,7.30
2022-08-17T19:20:16.794Z,9.00
2022-08-17T19:22:58.632Z,8.43
2022-08-17T19:25:30.205Z,9.90
2022-08-17T19:28:12.623Z,7.75
2022-08-17T19:30:51.455Z,9.77
2022-08-17T19:33:19.456Z,9.85
2022-08-17T19:36:00.290Z,9.35
2022-08-17T19:38:43.274Z,8.77
2022-08-17T19:41:19.402Z,9.75
2022-08-17T19:44:15.232Z,7.78
2022-08-17T19:46:56.117Z,9.00
2022-08-17T19:49:41.415Z,9.25
2022-08-17T19:52:36.298Z,8.73
2022-08-17T19:55:10.216Z,10.90
2022-08-17T19:57:50.493Z,10.13
2022-08-17T20:00:20.129Z,9.63
2022-08-17T20:02:55.458Z,10.52
2022-08-17T20:05:27.864Z,8.32
2022-08-17T20:08:03.149Z,12.07
2022-08-17T20:10:39.831Z,10.45
2022-08-17T20:13:11.834Z,9.93
2022-08-17T20:15:42.493Z,10.10
2022-08-17T20:18:19.343Z,9.30
2022-08-17T20:20:56.357Z,9.90
2022-08-17T20:23:51.322Z,15.02
2022-08-17T20:26:23.721Z,18.92
2022-08-17T20:29:37.096Z,17.13
2022-08-17T20:32:18.438Z,14.80
2022-08-17T20:34:48.281Z,11.10
2022-08-17T20:37:32.388Z,15.35
2022-08-17T20:40:25.897Z,15.00
2022-08-17T20:43:01.431Z,9.45
2022-08-17T20:46:05.157Z,10.88
2022-08-17T20:48:38.973Z,11.20
2022-08-17T20:51:23.555Z,8.52
2022-08-17T20:54:05.575Z,9.35
2022-08-17T20:57:00.326Z,9.05
2022-08-17T20:59:57.264Z,11.00
2022-08-17T21:02:27.495Z,9.43
2022-08-17T21:05:34.825Z,12.93
2022-08-17T21:08:14.248Z,11.40
2022-08-17T21:10:46.394Z,10.57
2022-08-17T21:13:56.250Z,10.40
2022-08-17T21:16:36.268Z,12.60
2022-08-17T21:19:23.809Z,11.40
2022-08-17T21:22:04.353Z,11.73
2022-08-17T21:24:45.647Z,14.55
2022-08-17T21:27:30.186Z,15.32
2022-08-17T21:30:25.376Z,9.27
2022-08-17T21:33:20.367Z,12.18
2022-08-17T21:35:51.716Z,11.23
2022-08-17T21:38:23.470Z,10.68
2022-08-17T21:40:54.216Z,13.57
2022-08-17T21:43:26.513Z,9.93
2022-08-17T21:46:02.616Z,14.85
2022-08-17T21:48:32.972Z,12.68
2022-08-17T21:51:08.258Z,12.88
2022-08-17T21:53:40.998Z,10.80
2022-08-17T21:56:10.922Z,10.55
2022-08-17T21:58:40.948Z,10.85
2022-08-17T22:01:24.182Z,12.30
2022-08-17T22:04:01.602Z,9.60
2022-08-17T22:06:34.323Z,9.88
2022-08-17T22:09:14.364Z,10.15
2022-08-17T22:11:53.646Z,9.23
2022-08-17T22:14:25.668Z,10.52
2022-08-17T22:17:17.041Z,11.82
2022-08-17T22:19:48.903Z,10.30
2022-08-17T22:22:59.787Z,10.18
2022-08-17T22:25:28.472Z,11.57
2022-08-17T22:27:58.519Z,10.02
2022-08-17T22:30:33.681Z,10.88
2022-08-17T22:33:23.509Z,9.90
2022-08-17T22:36:10.544Z,10.93
2022-08-17T22:38:39.303Z,10.85
2022-08-17T22:41:34.814Z,12.00
2022-08-17T22:44:14.112Z,11.70
2022-08-17T22:46:51.564Z,10.65
2022-08-17T22:49:26.620Z,10.50
2022-08-17T22:52:03.537Z,11.90
2022-08-17T22:54:49.566Z,10.38
2022-08-17T22:57:36.303Z,12.15
2022-08-17T23:00:06.724Z,10.82
2022-08-17T23:02:35.859Z,10.73
2022-08-17T23:05:21.941Z,9.75
2022-08-17T23:07:53.263Z,10.98
2022-08-17T23:10:21.142Z,9.55
2022-08-17T23:12:48.973Z,9.85
2022-08-17T23:15:19.334Z,10.27
2022-08-17T23:17:47.660Z,9.88
2022-08-17T23:20:17.529Z,9.98
2022-08-17T23:22:52.507Z,10.77
2022-08-17T23:25:28.006Z,9.93
2022-08-17T23:27:57.420Z,12.60
2022-08-17T23:30:28.453Z,9.90
2022-08-17T23:32:56.853Z,10.57
2022-08-17T23:35:40.149Z,10.50
2022-08-17T23:38:10.415Z,12.35
2022-08-17T23:40:39.190Z,10.85
2022-08-17T23:43:23.732Z,11.07
2022-08-17T23:45:53.507Z,11.68
2022-08-17T23:48:30.359Z,12.80
2022-08-17T23:51:06.121Z,10.75
2022-08-17T23:53:36.365Z,10.45
2022-08-17T23:56:10.341Z,10.73
2022-08-17T23:58:39.606Z,10.75
